Terminal Aerodrome Forecast
Issued by NWS

Home | Current Version | Previous Version | Graphics & Text | Print | Product List | Glossary Off
Versions: 1 2 3 4 5 6 7 8 9 10 11 12 13 14 15 16 17 18 19 20 21 22 23 24 25 26 27 28 29

000
FTUS43 KICT 201700
TAFCNU
TAF
KCNU 201736Z 2018/2118 20008KT 6SM BR OVC012
     FM201900 21010KT P6SM BKN035
     FM210500 21007KT P6SM VCTS SCT040CB BKN100
     FM210700 32007KT P6SM VCTS BKN070CB
     FM211200 03013KT P6SM SCT100=

USA.gov is the U.S. government's official web portal to all federal, state and local government web resources and services.